sensor_id;sensor_type;location;lat;lon;timestamp;temperature;humidity
52415;DHT22;38340;52.964;6.086;2024-03-08T00:02:17;1.50;99.90
52415;DHT22;38340;52.964;6.086;2024-03-08T00:04:42;1.40;99.90
52415;DHT22;38340;52.964;6.086;2024-03-08T00:07:08;1.40;99.90
52415;DHT22;38340;52.964;6.086;2024-03-08T00:09:34;1.40;99.90
52415;DHT22;38340;52.964;6.086;2024-03-08T00:11:59;1.30;99.90
52415;DHT22;38340;52.964;6.086;2024-03-08T00:14:25;1.30;99.90
52415;DHT22;38340;52.964;6.086;2024-03-08T00:16:51;1.30;99.90
52415;DHT22;38340;52.964;6.086;2024-03-08T00:19:19;1.30;99.90
52415;DHT22;38340;52.964;6.086;2024-03-08T00:21:45;1.30;99.90
52415;DHT22;38340;52.964;6.086;2024-03-08T00:24:11;1.30;99.90
52415;DHT22;38340;52.964;6.086;2024-03-08T00:26:37;1.20;99.90
52415;DHT22;38340;52.964;6.086;2024-03-08T00:29:03;1.30;99.90
52415;DHT22;38340;52.964;6.086;2024-03-08T00:31:29;1.20;99.90
52415;DHT22;38340;52.964;6.086;2024-03-08T00:33:56;1.20;99.90
52415;DHT22;38340;52.964;6.086;2024-03-08T00:36:22;1.20;99.90
52415;DHT22;38340;52.964;6.086;2024-03-08T00:38:48;1.20;99.90
52415;DHT22;38340;52.964;6.086;2024-03-08T00:41:14;1.10;99.90
52415;DHT22;38340;52.964;6.086;2024-03-08T00:43:40;1.10;99.90
52415;DHT22;38340;52.964;6.086;2024-03-08T00:46:05;1.00;99.90
52415;DHT22;38340;52.964;6.086;2024-03-08T00:48:31;1.00;99.90
52415;DHT22;38340;52.964;6.086;2024-03-08T00:50:57;1.00;99.90
52415;DHT22;38340;52.964;6.086;2024-03-08T00:53:23;1.00;99.90
52415;DHT22;38340;52.964;6.086;2024-03-08T00:55:48;1.00;99.90
52415;DHT22;38340;52.964;6.086;2024-03-08T00:58:14;0.90;99.90
52415;DHT22;38340;52.964;6.086;2024-03-08T01:00:40;0.90;99.90
52415;DHT22;38340;52.964;6.086;2024-03-08T01:03:06;0.90;99.90
52415;DHT22;38340;52.964;6.086;2024-03-08T01:05:32;0.90;99.90
52415;DHT22;38340;52.964;6.086;2024-03-08T01:07:58;0.90;99.90
52415;DHT22;38340;52.964;6.086;2024-03-08T01:10:24;0.80;99.90
52415;DHT22;38340;52.964;6.086;2024-03-08T01:12:49;0.80;99.90
52415;DHT22;38340;52.964;6.086;2024-03-08T01:15:15;0.80;99.90
52415;DHT22;38340;52.964;6.086;2024-03-08T01:17:41;0.80;99.90
52415;DHT22;38340;52.964;6.086;2024-03-08T01:20:07;0.80;99.90
52415;DHT22;38340;52.964;6.086;2024-03-08T01:22:36;0.80;99.90
52415;DHT22;38340;52.964;6.086;2024-03-08T01:25:02;0.70;99.90
52415;DHT22;38340;52.964;6.086;2024-03-08T01:27:30;0.70;99.90
52415;DHT22;38340;52.964;6.086;2024-03-08T01:29:56;0.70;99.90
52415;DHT22;38340;52.964;6.086;2024-03-08T01:32:23;0.70;99.90
52415;DHT22;38340;52.964;6.086;2024-03-08T01:34:49;0.70;99.90
52415;DHT22;38340;52.964;6.086;2024-03-08T01:37:15;0.70;99.90
52415;DHT22;38340;52.964;6.086;2024-03-08T01:39:41;0.70;99.90
52415;DHT22;38340;52.964;6.086;2024-03-08T01:42:06;0.60;99.90
52415;DHT22;38340;52.964;6.086;2024-03-08T01:44:32;0.60;99.90
52415;DHT22;38340;52.964;6.086;2024-03-08T01:46:58;0.60;99.90
52415;DHT22;38340;52.964;6.086;2024-03-08T01:49:25;0.60;99.90
52415;DHT22;38340;52.964;6.086;2024-03-08T01:51:52;0.60;99.90
52415;DHT22;38340;52.964;6.086;2024-03-08T01:54:19;0.60;99.90
52415;DHT22;38340;52.964;6.086;2024-03-08T01:56:45;0.60;99.90
52415;DHT22;38340;52.964;6.086;2024-03-08T01:59:12;0.60;99.90
52415;DHT22;38340;52.964;6.086;2024-03-08T02:01:40;0.60;99.90
52415;DHT22;38340;52.964;6.086;2024-03-08T02:04:06;0.60;99.90
52415;DHT22;38340;52.964;6.086;2024-03-08T02:06:32;0.60;99.90
52415;DHT22;38340;52.964;6.086;2024-03-08T02:08:58;0.60;99.90
52415;DHT22;38340;52.964;6.086;2024-03-08T02:11:24;0.60;99.90
52415;DHT22;38340;52.964;6.086;2024-03-08T02:13:50;0.50;99.90
52415;DHT22;38340;52.964;6.086;2024-03-08T02:16:22;0.50;99.90
52415;DHT22;38340;52.964;6.086;2024-03-08T02:18:48;0.60;99.90
52415;DHT22;38340;52.964;6.086;2024-03-08T02:21:14;0.60;99.90
52415;DHT22;38340;52.964;6.086;2024-03-08T02:23:43;0.60;99.90
52415;DHT22;38340;52.964;6.086;2024-03-08T02:26:09;0.50;99.90
52415;DHT22;38340;52.964;6.086;2024-03-08T02:28:36;0.50;99.90
52415;DHT22;38340;52.964;6.086;2024-03-08T02:31:02;0.50;99.90
52415;DHT22;38340;52.964;6.086;2024-03-08T02:33:28;0.50;99.90
52415;DHT22;38340;52.964;6.086;2024-03-08T02:35:54;0.50;99.90
52415;DHT22;38340;52.964;6.086;2024-03-08T02:38:22;0.60;99.90
52415;DHT22;38340;52.964;6.086;2024-03-08T02:40:49;0.50;99.90
52415;DHT22;38340;52.964;6.086;2024-03-08T02:43:16;0.50;99.90
52415;DHT22;38340;52.964;6.086;2024-03-08T02:45:43;0.50;99.90
52415;DHT22;38340;52.964;6.086;2024-03-08T02:48:10;0.50;99.90
52415;DHT22;38340;52.964;6.086;2024-03-08T02:50:36;0.50;99.90
52415;DHT22;38340;52.964;6.086;2024-03-08T02:53:03;0.50;99.90
52415;DHT22;38340;52.964;6.086;2024-03-08T02:55:29;0.50;99.90
52415;DHT22;38340;52.964;6.086;2024-03-08T02:57:55;0.50;99.90
52415;DHT22;38340;52.964;6.086;2024-03-08T03:00:22;0.50;99.90
52415;DHT22;38340;52.964;6.086;2024-03-08T03:02:49;0.50;99.90
52415;DHT22;38340;52.964;6.086;2024-03-08T03:05:20;0.50;99.90
52415;DHT22;38340;52.964;6.086;2024-03-08T03:07:46;0.50;99.90
52415;DHT22;38340;52.964;6.086;2024-03-08T03:10:11;0.50;99.90
52415;DHT22;38340;52.964;6.086;2024-03-08T03:12:44;0.40;99.90
52415;DHT22;38340;52.964;6.086;2024-03-08T03:15:13;0.40;99.90
52415;DHT22;38340;52.964;6.086;2024-03-08T03:17:49;0.50;99.90
52415;DHT22;38340;52.964;6.086;2024-03-08T03:20:18;0.50;99.90
52415;DHT22;38340;52.964;6.086;2024-03-08T03:22:58;0.50;99.90
52415;DHT22;38340;52.964;6.086;2024-03-08T03:25:27;0.50;99.90
52415;DHT22;38340;52.964;6.086;2024-03-08T03:27:58;0.50;99.90
52415;DHT22;38340;52.964;6.086;2024-03-08T03:30:25;0.50;99.90
52415;DHT22;38340;52.964;6.086;2024-03-08T03:32:52;0.40;99.90
52415;DHT22;38340;52.964;6.086;2024-03-08T03:35:20;0.50;99.90
52415;DHT22;38340;52.964;6.086;2024-03-08T03:37:46;0.40;99.90
52415;DHT22;38340;52.964;6.086;2024-03-08T03:40:33;0.40;99.90
52415;DHT22;38340;52.964;6.086;2024-03-08T03:43:00;0.40;99.90
52415;DHT22;38340;52.964;6.086;2024-03-08T03:45:26;0.40;99.90
52415;DHT22;38340;52.964;6.086;2024-03-08T03:47:52;0.30;99.90
52415;DHT22;38340;52.964;6.086;2024-03-08T03:50:21;0.30;99.90
52415;DHT22;38340;52.964;6.086;2024-03-08T03:52:47;0.30;99.90
52415;DHT22;38340;52.964;6.086;2024-03-08T03:55:14;0.20;99.90
52415;DHT22;38340;52.964;6.086;2024-03-08T03:57:40;0.20;99.90
52415;DHT22;38340;52.964;6.086;2024-03-08T04:00:07;0.20;99.90
52415;DHT22;38340;52.964;6.086;2024-03-08T04:02:40;0.20;99.90
52415;DHT22;38340;52.964;6.086;2024-03-08T04:05:07;0.20;99.90
52415;DHT22;38340;52.964;6.086;2024-03-08T04:07:34;0.20;99.90
52415;DHT22;38340;52.964;6.086;2024-03-08T04:10:04;0.20;99.90
52415;DHT22;38340;52.964;6.086;2024-03-08T04:12:32;0.20;99.90
52415;DHT22;38340;52.964;6.086;2024-03-08T04:14:58;0.20;99.90
52415;DHT22;38340;52.964;6.086;2024-03-08T04:17:23;0.20;99.90
52415;DHT22;38340;52.964;6.086;2024-03-08T04:19:50;0.20;99.90
52415;DHT22;38340;52.964;6.086;2024-03-08T04:22:15;0.10;99.90
52415;DHT22;38340;52.964;6.086;2024-03-08T04:24:44;0.20;99.90
52415;DHT22;38340;52.964;6.086;2024-03-08T04:27:09;0.20;99.90
52415;DHT22;38340;52.964;6.086;2024-03-08T04:29:35;0.20;99.90
52415;DHT22;38340;52.964;6.086;2024-03-08T04:32:04;0.20;99.90
52415;DHT22;38340;52.964;6.086;2024-03-08T04:34:30;0.10;99.90
52415;DHT22;38340;52.964;6.086;2024-03-08T04:36:59;0.10;99.90
52415;DHT22;38340;52.964;6.086;2024-03-08T04:39:25;0.10;99.90
52415;DHT22;38340;52.964;6.086;2024-03-08T04:41:54;0.10;99.90
52415;DHT22;38340;52.964;6.086;2024-03-08T04:44:20;0.10;99.90
52415;DHT22;38340;52.964;6.086;2024-03-08T04:46:46;0.10;99.90
52415;DHT22;38340;52.964;6.086;2024-03-08T04:49:12;0.10;99.90
52415;DHT22;38340;52.964;6.086;2024-03-08T04:51:38;0.10;99.90
52415;DHT22;38340;52.964;6.086;2024-03-08T04:54:04;0.00;99.90
52415;DHT22;38340;52.964;6.086;2024-03-08T04:56:32;0.00;99.90
52415;DHT22;38340;52.964;6.086;2024-03-08T04:58:59;0.00;99.90
52415;DHT22;38340;52.964;6.086;2024-03-08T05:01:24;0.00;99.90
52415;DHT22;38340;52.964;6.086;2024-03-08T05:03:50;0.00;99.90
52415;DHT22;38340;52.964;6.086;2024-03-08T05:06:16;0.00;99.90
52415;DHT22;38340;52.964;6.086;2024-03-08T05:08:42;0.00;99.90
52415;DHT22;38340;52.964;6.086;2024-03-08T05:11:11;0.00;99.90
52415;DHT22;38340;52.964;6.086;2024-03-08T05:13:40;0.00;99.90
52415;DHT22;38340;52.964;6.086;2024-03-08T05:16:06;0.00;99.90
52415;DHT22;38340;52.964;6.086;2024-03-08T05:18:33;-0.10;99.90
52415;DHT22;38340;52.964;6.086;2024-03-08T05:20:59;-0.10;99.90
52415;DHT22;38340;52.964;6.086;2024-03-08T05:23:25;-0.10;99.90
52415;DHT22;38340;52.964;6.086;2024-03-08T05:25:51;-0.10;99.90
52415;DHT22;38340;52.964;6.086;2024-03-08T05:28:16;-0.10;99.90
52415;DHT22;38340;52.964;6.086;2024-03-08T05:30:42;-0.10;99.90
52415;DHT22;38340;52.964;6.086;2024-03-08T05:33:08;-0.20;99.90
52415;DHT22;38340;52.964;6.086;2024-03-08T05:35:37;-0.20;99.90
52415;DHT22;38340;52.964;6.086;2024-03-08T05:38:03;-0.20;99.90
52415;DHT22;38340;52.964;6.086;2024-03-08T05:40:28;-0.30;99.90
52415;DHT22;38340;52.964;6.086;2024-03-08T05:43:01;-0.20;99.90
52415;DHT22;38340;52.964;6.086;2024-03-08T05:45:26;-0.20;99.90
52415;DHT22;38340;52.964;6.086;2024-03-08T05:47:52;-0.20;99.90
52415;DHT22;38340;52.964;6.086;2024-03-08T05:50:18;-0.20;99.90
52415;DHT22;38340;52.964;6.086;2024-03-08T05:52:45;-0.30;99.90
52415;DHT22;38340;52.964;6.086;2024-03-08T05:55:11;-0.40;99.90
52415;DHT22;38340;52.964;6.086;2024-03-08T05:57:42;-0.30;99.90
52415;DHT22;38340;52.964;6.086;2024-03-08T06:00:09;-0.30;99.90
52415;DHT22;38340;52.964;6.086;2024-03-08T06:02:37;-0.30;99.90
52415;DHT22;38340;52.964;6.086;2024-03-08T06:05:08;-0.30;99.90
52415;DHT22;38340;52.964;6.086;2024-03-08T06:07:34;-0.20;99.90
52415;DHT22;38340;52.964;6.086;2024-03-08T06:09:59;-0.20;99.90
52415;DHT22;38340;52.964;6.086;2024-03-08T06:12:25;-0.30;99.90
52415;DHT22;38340;52.964;6.086;2024-03-08T06:14:54;-0.30;99.90
52415;DHT22;38340;52.964;6.086;2024-03-08T06:17:20;-0.30;99.90
52415;DHT22;38340;52.964;6.086;2024-03-08T06:19:51;-0.30;99.90
52415;DHT22;38340;52.964;6.086;2024-03-08T06:22:17;-0.30;99.90
52415;DHT22;38340;52.964;6.086;2024-03-08T06:24:42;-0.30;99.90
52415;DHT22;38340;52.964;6.086;2024-03-08T06:27:08;-0.30;99.90
52415;DHT22;38340;52.964;6.086;2024-03-08T06:29:35;-0.30;99.90
52415;DHT22;38340;52.964;6.086;2024-03-08T06:32:00;-0.30;99.90
52415;DHT22;38340;52.964;6.086;2024-03-08T06:34:26;-0.30;99.90
52415;DHT22;38340;52.964;6.086;2024-03-08T06:36:52;-0.20;99.90
52415;DHT22;38340;52.964;6.086;2024-03-08T06:39:18;-0.20;99.90
52415;DHT22;38340;52.964;6.086;2024-03-08T06:41:43;-0.20;99.90
52415;DHT22;38340;52.964;6.086;2024-03-08T06:44:10;-0.10;99.90
52415;DHT22;38340;52.964;6.086;2024-03-08T06:46:36;-0.10;99.90
52415;DHT22;38340;52.964;6.086;2024-03-08T06:49:01;-0.10;99.90
52415;DHT22;38340;52.964;6.086;2024-03-08T06:51:28;0.00;99.90
52415;DHT22;38340;52.964;6.086;2024-03-08T06:53:54;0.00;99.90
52415;DHT22;38340;52.964;6.086;2024-03-08T06:56:20;0.10;99.90
52415;DHT22;38340;52.964;6.086;2024-03-08T06:58:45;0.10;99.90
52415;DHT22;38340;52.964;6.086;2024-03-08T07:01:11;0.10;99.90
52415;DHT22;38340;52.964;6.086;2024-03-08T07:03:43;0.20;99.90
52415;DHT22;38340;52.964;6.086;2024-03-08T07:06:10;0.30;99.90
52415;DHT22;38340;52.964;6.086;2024-03-08T07:08:36;0.30;99.90
52415;DHT22;38340;52.964;6.086;2024-03-08T07:11:02;0.30;99.90
52415;DHT22;38340;52.964;6.086;2024-03-08T07:13:29;0.40;99.90
52415;DHT22;38340;52.964;6.086;2024-03-08T07:15:55;0.50;99.90
52415;DHT22;38340;52.964;6.086;2024-03-08T07:18:20;0.50;99.90
52415;DHT22;38340;52.964;6.086;2024-03-08T07:20:47;0.60;99.90
52415;DHT22;38340;52.964;6.086;2024-03-08T07:23:14;0.70;99.90
52415;DHT22;38340;52.964;6.086;2024-03-08T07:26:00;0.70;99.90
52415;DHT22;38340;52.964;6.086;2024-03-08T07:28:27;0.80;99.90
52415;DHT22;38340;52.964;6.086;2024-03-08T07:30:53;0.80;99.90
52415;DHT22;38340;52.964;6.086;2024-03-08T07:33:27;0.90;99.90
52415;DHT22;38340;52.964;6.086;2024-03-08T07:35:53;0.90;99.90
52415;DHT22;38340;52.964;6.086;2024-03-08T07:38:18;1.00;99.90
52415;DHT22;38340;52.964;6.086;2024-03-08T07:40:46;1.10;99.90
52415;DHT22;38340;52.964;6.086;2024-03-08T07:43:13;1.10;99.90
52415;DHT22;38340;52.964;6.086;2024-03-08T07:45:39;1.20;99.90
52415;DHT22;38340;52.964;6.086;2024-03-08T07:48:06;1.20;99.90
52415;DHT22;38340;52.964;6.086;2024-03-08T07:50:39;1.30;99.90
52415;DHT22;38340;52.964;6.086;2024-03-08T07:53:05;1.30;99.90
52415;DHT22;38340;52.964;6.086;2024-03-08T07:55:35;1.40;99.90
52415;DHT22;38340;52.964;6.086;2024-03-08T07:58:02;1.50;99.90
52415;DHT22;38340;52.964;6.086;2024-03-08T08:00:28;1.60;99.90
52415;DHT22;38340;52.964;6.086;2024-03-08T08:02:55;1.60;99.90
52415;DHT22;38340;52.964;6.086;2024-03-08T08:05:21;1.70;99.90
52415;DHT22;38340;52.964;6.086;2024-03-08T08:07:47;1.80;99.90
52415;DHT22;38340;52.964;6.086;2024-03-08T08:10:13;1.80;99.90
52415;DHT22;38340;52.964;6.086;2024-03-08T08:12:51;2.00;99.90
52415;DHT22;38340;52.964;6.086;2024-03-08T08:15:20;2.00;99.90
52415;DHT22;38340;52.964;6.086;2024-03-08T08:17:46;2.10;99.90
52415;DHT22;38340;52.964;6.086;2024-03-08T08:20:12;2.20;99.90
52415;DHT22;38340;52.964;6.086;2024-03-08T08:22:41;2.30;99.90
52415;DHT22;38340;52.964;6.086;2024-03-08T08:25:08;2.40;99.90
52415;DHT22;38340;52.964;6.086;2024-03-08T08:27:35;2.50;99.90
52415;DHT22;38340;52.964;6.086;2024-03-08T08:30:03;2.60;99.90
52415;DHT22;38340;52.964;6.086;2024-03-08T08:32:36;2.60;99.90
52415;DHT22;38340;52.964;6.086;2024-03-08T08:35:03;2.70;99.90
52415;DHT22;38340;52.964;6.086;2024-03-08T08:37:30;2.80;99.90
52415;DHT22;38340;52.964;6.086;2024-03-08T08:39:57;2.90;99.90
52415;DHT22;38340;52.964;6.086;2024-03-08T08:42:23;3.00;99.90
52415;DHT22;38340;52.964;6.086;2024-03-08T08:44:49;3.10;99.90
52415;DHT22;38340;52.964;6.086;2024-03-08T08:47:16;3.20;99.90
52415;DHT22;38340;52.964;6.086;2024-03-08T08:49:44;3.20;99.90
52415;DHT22;38340;52.964;6.086;2024-03-08T08:52:12;3.30;99.90
52415;DHT22;38340;52.964;6.086;2024-03-08T08:54:38;3.40;99.90
52415;DHT22;38340;52.964;6.086;2024-03-08T08:57:03;3.40;99.90
52415;DHT22;38340;52.964;6.086;2024-03-08T08:59:36;3.50;99.90
52415;DHT22;38340;52.964;6.086;2024-03-08T09:02:06;3.50;99.90
52415;DHT22;38340;52.964;6.086;2024-03-08T09:04:32;3.60;99.90
52415;DHT22;38340;52.964;6.086;2024-03-08T09:06:58;3.70;99.90
52415;DHT22;38340;52.964;6.086;2024-03-08T09:09:24;3.80;99.90
52415;DHT22;38340;52.964;6.086;2024-03-08T09:11:51;3.90;99.90
52415;DHT22;38340;52.964;6.086;2024-03-08T09:14:17;3.90;99.90
52415;DHT22;38340;52.964;6.086;2024-03-08T09:16:42;4.00;99.90
52415;DHT22;38340;52.964;6.086;2024-03-08T09:19:08;4.00;99.90
52415;DHT22;38340;52.964;6.086;2024-03-08T09:21:36;4.00;99.90
52415;DHT22;38340;52.964;6.086;2024-03-08T09:24:03;4.10;99.90
52415;DHT22;38340;52.964;6.086;2024-03-08T09:26:28;4.20;99.90
52415;DHT22;38340;52.964;6.086;2024-03-08T09:28:54;4.30;99.90
52415;DHT22;38340;52.964;6.086;2024-03-08T09:31:21;4.30;99.90
52415;DHT22;38340;52.964;6.086;2024-03-08T09:33:47;4.40;99.90
52415;DHT22;38340;52.964;6.086;2024-03-08T09:36:13;4.50;99.90
52415;DHT22;38340;52.964;6.086;2024-03-08T09:38:40;4.50;99.90
52415;DHT22;38340;52.964;6.086;2024-03-08T09:41:06;4.60;99.90
52415;DHT22;38340;52.964;6.086;2024-03-08T09:43:31;4.70;99.90
52415;DHT22;38340;52.964;6.086;2024-03-08T09:45:59;4.70;99.90
52415;DHT22;38340;52.964;6.086;2024-03-08T09:48:26;4.70;99.90
52415;DHT22;38340;52.964;6.086;2024-03-08T09:50:52;4.80;99.90
52415;DHT22;38340;52.964;6.086;2024-03-08T09:53:18;4.80;99.90
52415;DHT22;38340;52.964;6.086;2024-03-08T09:55:44;4.80;99.90
52415;DHT22;38340;52.964;6.086;2024-03-08T09:58:15;4.80;99.90
52415;DHT22;38340;52.964;6.086;2024-03-08T10:00:53;4.80;99.90
52415;DHT22;38340;52.964;6.086;2024-03-08T10:03:22;4.80;99.90
52415;DHT22;38340;52.964;6.086;2024-03-08T10:05:47;4.80;99.90
52415;DHT22;38340;52.964;6.086;2024-03-08T10:08:14;4.80;99.90
52415;DHT22;38340;52.964;6.086;2024-03-08T10:10:39;4.80;99.90
52415;DHT22;38340;52.964;6.086;2024-03-08T10:13:09;4.80;99.90
52415;DHT22;38340;52.964;6.086;2024-03-08T10:15:36;4.90;99.90
52415;DHT22;38340;52.964;6.086;2024-03-08T10:18:01;4.90;99.90
52415;DHT22;38340;52.964;6.086;2024-03-08T10:20:30;5.00;99.90
52415;DHT22;38340;52.964;6.086;2024-03-08T10:23:05;5.10;99.90
52415;DHT22;38340;52.964;6.086;2024-03-08T10:25:33;5.10;99.90
52415;DHT22;38340;52.964;6.086;2024-03-08T10:27:59;5.10;99.90
52415;DHT22;38340;52.964;6.086;2024-03-08T10:30:25;5.10;99.90
52415;DHT22;38340;52.964;6.086;2024-03-08T10:32:50;5.20;99.90
52415;DHT22;38340;52.964;6.086;2024-03-08T10:35:17;5.20;99.90
52415;DHT22;38340;52.964;6.086;2024-03-08T10:37:51;5.20;99.90
52415;DHT22;38340;52.964;6.086;2024-03-08T10:40:26;5.30;99.90
52415;DHT22;38340;52.964;6.086;2024-03-08T10:42:59;5.40;99.90
52415;DHT22;38340;52.964;6.086;2024-03-08T10:45:39;5.50;99.90
52415;DHT22;38340;52.964;6.086;2024-03-08T10:48:29;5.50;99.90
52415;DHT22;38340;52.964;6.086;2024-03-08T10:50:59;5.60;99.90
52415;DHT22;38340;52.964;6.086;2024-03-08T10:53:28;5.50;99.90
52415;DHT22;38340;52.964;6.086;2024-03-08T10:55:57;5.50;99.90
52415;DHT22;38340;52.964;6.086;2024-03-08T10:58:27;5.60;99.90
52415;DHT22;38340;52.964;6.086;2024-03-08T11:00:57;5.70;99.90
52415;DHT22;38340;52.964;6.086;2024-03-08T11:08:40;5.80;99.90
52415;DHT22;38340;52.964;6.086;2024-03-08T11:11:26;5.80;99.90
52415;DHT22;38340;52.964;6.086;2024-03-08T11:13:53;5.90;99.90
52415;DHT22;38340;52.964;6.086;2024-03-08T11:16:38;5.90;99.90
52415;DHT22;38340;52.964;6.086;2024-03-08T11:21:36;6.00;99.90
52415;DHT22;38340;52.964;6.086;2024-03-08T11:24:14;6.10;99.90
52415;DHT22;38340;52.964;6.086;2024-03-08T11:26:42;6.10;99.90
52415;DHT22;38340;52.964;6.086;2024-03-08T11:32:09;6.20;99.90
52415;DHT22;38340;52.964;6.086;2024-03-08T11:34:40;6.30;99.90
52415;DHT22;38340;52.964;6.086;2024-03-08T11:37:16;6.30;99.90
52415;DHT22;38340;52.964;6.086;2024-03-08T11:39:53;6.40;99.90
52415;DHT22;38340;52.964;6.086;2024-03-08T11:42:25;6.40;99.90
52415;DHT22;38340;52.964;6.086;2024-03-08T11:44:52;6.40;99.90
52415;DHT22;38340;52.964;6.086;2024-03-08T11:47:18;6.50;99.90
52415;DHT22;38340;52.964;6.086;2024-03-08T11:49:45;6.50;99.90
52415;DHT22;38340;52.964;6.086;2024-03-08T11:52:13;6.60;99.90
52415;DHT22;38340;52.964;6.086;2024-03-08T11:54:47;6.60;99.90
52415;DHT22;38340;52.964;6.086;2024-03-08T11:57:18;6.70;99.90
52415;DHT22;38340;52.964;6.086;2024-03-08T11:59:54;6.70;99.90
52415;DHT22;38340;52.964;6.086;2024-03-08T12:02:22;6.80;99.90
52415;DHT22;38340;52.964;6.086;2024-03-08T12:04:58;6.80;99.90
52415;DHT22;38340;52.964;6.086;2024-03-08T12:07:32;6.90;99.90
52415;DHT22;38340;52.964;6.086;2024-03-08T12:10:21;6.90;99.90
52415;DHT22;38340;52.964;6.086;2024-03-08T12:12:49;7.00;99.90
52415;DHT22;38340;52.964;6.086;2024-03-08T12:15:15;7.00;99.90
52415;DHT22;38340;52.964;6.086;2024-03-08T12:17:43;7.00;99.90
52415;DHT22;38340;52.964;6.086;2024-03-08T12:20:17;7.00;99.90
52415;DHT22;38340;52.964;6.086;2024-03-08T12:22:46;7.10;99.90
52415;DHT22;38340;52.964;6.086;2024-03-08T12:25:12;7.10;99.90
52415;DHT22;38340;52.964;6.086;2024-03-08T12:27:42;7.20;99.90
52415;DHT22;38340;52.964;6.086;2024-03-08T12:30:21;7.30;99.90
52415;DHT22;38340;52.964;6.086;2024-03-08T12:33:00;7.30;99.90
52415;DHT22;38340;52.964;6.086;2024-03-08T12:35:27;7.30;99.90
52415;DHT22;38340;52.964;6.086;2024-03-08T12:37:55;7.30;99.90
52415;DHT22;38340;52.964;6.086;2024-03-08T12:40:30;7.40;99.90
52415;DHT22;38340;52.964;6.086;2024-03-08T12:42:57;7.40;99.90
52415;DHT22;38340;52.964;6.086;2024-03-08T12:45:24;7.40;99.90
52415;DHT22;38340;52.964;6.086;2024-03-08T12:47:56;7.50;99.90
52415;DHT22;38340;52.964;6.086;2024-03-08T12:50:22;7.50;99.90
52415;DHT22;38340;52.964;6.086;2024-03-08T12:52:50;7.60;99.90
52415;DHT22;38340;52.964;6.086;2024-03-08T12:55:16;7.60;99.90
52415;DHT22;38340;52.964;6.086;2024-03-08T12:57:43;7.60;99.90
52415;DHT22;38340;52.964;6.086;2024-03-08T13:00:10;7.60;99.90
52415;DHT22;38340;52.964;6.086;2024-03-08T13:02:40;7.70;99.90
52415;DHT22;38340;52.964;6.086;2024-03-08T13:05:07;7.70;99.90
52415;DHT22;38340;52.964;6.086;2024-03-08T13:07:35;7.80;99.90
52415;DHT22;38340;52.964;6.086;2024-03-08T13:10:03;7.90;99.90
52415;DHT22;38340;52.964;6.086;2024-03-08T13:12:30;7.90;99.90
52415;DHT22;38340;52.964;6.086;2024-03-08T13:14:55;7.90;99.90
52415;DHT22;38340;52.964;6.086;2024-03-08T13:17:22;8.00;99.90
52415;DHT22;38340;52.964;6.086;2024-03-08T13:19:48;8.00;99.90
52415;DHT22;38340;52.964;6.086;2024-03-08T13:22:14;8.00;99.90
52415;DHT22;38340;52.964;6.086;2024-03-08T13:24:44;8.10;99.90
52415;DHT22;38340;52.964;6.086;2024-03-08T13:27:11;8.10;99.90
52415;DHT22;38340;52.964;6.086;2024-03-08T13:29:46;8.10;99.90
52415;DHT22;38340;52.964;6.086;2024-03-08T13:32:13;8.10;99.90
52415;DHT22;38340;52.964;6.086;2024-03-08T13:34:42;8.10;99.90
52415;DHT22;38340;52.964;6.086;2024-03-08T13:37:09;8.10;99.90
52415;DHT22;38340;52.964;6.086;2024-03-08T13:39:36;8.20;99.90
52415;DHT22;38340;52.964;6.086;2024-03-08T13:42:12;8.20;99.90
52415;DHT22;38340;52.964;6.086;2024-03-08T13:44:48;8.20;99.90
52415;DHT22;38340;52.964;6.086;2024-03-08T13:47:18;8.20;99.90
52415;DHT22;38340;52.964;6.086;2024-03-08T13:49:44;8.30;99.90
52415;DHT22;38340;52.964;6.086;2024-03-08T13:52:10;8.30;99.90
52415;DHT22;38340;52.964;6.086;2024-03-08T13:54:37;8.30;99.90
52415;DHT22;38340;52.964;6.086;2024-03-08T13:57:04;8.30;99.90
52415;DHT22;38340;52.964;6.086;2024-03-08T13:59:31;8.40;99.90
52415;DHT22;38340;52.964;6.086;2024-03-08T14:01:59;8.40;99.90
52415;DHT22;38340;52.964;6.086;2024-03-08T14:04:26;8.40;99.90
52415;DHT22;38340;52.964;6.086;2024-03-08T14:06:53;8.40;99.90
52415;DHT22;38340;52.964;6.086;2024-03-08T14:09:23;8.40;99.90
52415;DHT22;38340;52.964;6.086;2024-03-08T14:11:51;8.40;99.90
52415;DHT22;38340;52.964;6.086;2024-03-08T14:14:24;8.40;99.90
52415;DHT22;38340;52.964;6.086;2024-03-08T14:16:50;8.40;99.90
52415;DHT22;38340;52.964;6.086;2024-03-08T14:19:20;8.40;99.90
52415;DHT22;38340;52.964;6.086;2024-03-08T14:21:46;8.40;99.90
52415;DHT22;38340;52.964;6.086;2024-03-08T14:24:15;8.40;99.90
52415;DHT22;38340;52.964;6.086;2024-03-08T14:26:41;8.40;99.90
52415;DHT22;38340;52.964;6.086;2024-03-08T14:29:07;8.40;99.90
52415;DHT22;38340;52.964;6.086;2024-03-08T14:31:36;8.50;99.90
52415;DHT22;38340;52.964;6.086;2024-03-08T14:34:02;8.50;99.90
52415;DHT22;38340;52.964;6.086;2024-03-08T14:36:29;8.50;99.90
52415;DHT22;38340;52.964;6.086;2024-03-08T14:38:55;8.50;99.90
52415;DHT22;38340;52.964;6.086;2024-03-08T14:41:21;8.50;99.90
52415;DHT22;38340;52.964;6.086;2024-03-08T14:43:48;8.50;99.90
52415;DHT22;38340;52.964;6.086;2024-03-08T14:46:16;8.50;99.90
52415;DHT22;38340;52.964;6.086;2024-03-08T14:48:55;8.50;99.90
52415;DHT22;38340;52.964;6.086;2024-03-08T14:51:22;8.50;99.90
52415;DHT22;38340;52.964;6.086;2024-03-08T14:53:54;8.50;99.90
52415;DHT22;38340;52.964;6.086;2024-03-08T14:56:20;8.40;99.90
52415;DHT22;38340;52.964;6.086;2024-03-08T14:58:47;8.50;99.90
52415;DHT22;38340;52.964;6.086;2024-03-08T15:01:15;8.50;99.90
52415;DHT22;38340;52.964;6.086;2024-03-08T15:03:44;8.40;99.90
52415;DHT22;38340;52.964;6.086;2024-03-08T15:06:10;8.40;99.90
52415;DHT22;38340;52.964;6.086;2024-03-08T15:08:37;8.40;99.90
52415;DHT22;38340;52.964;6.086;2024-03-08T15:11:03;8.40;99.90
52415;DHT22;38340;52.964;6.086;2024-03-08T15:13:31;8.40;99.90
52415;DHT22;38340;52.964;6.086;2024-03-08T15:16:10;8.40;99.90
52415;DHT22;38340;52.964;6.086;2024-03-08T15:18:44;8.40;99.90
52415;DHT22;38340;52.964;6.086;2024-03-08T15:21:13;8.40;99.90
52415;DHT22;38340;52.964;6.086;2024-03-08T15:23:46;8.30;99.90
52415;DHT22;38340;52.964;6.086;2024-03-08T15:26:16;8.30;99.90
52415;DHT22;38340;52.964;6.086;2024-03-08T15:28:45;8.40;99.90
52415;DHT22;38340;52.964;6.086;2024-03-08T15:31:12;8.30;99.90
52415;DHT22;38340;52.964;6.086;2024-03-08T15:33:39;8.30;99.90
52415;DHT22;38340;52.964;6.086;2024-03-08T15:36:14;8.20;99.90
52415;DHT22;38340;52.964;6.086;2024-03-08T15:38:44;8.20;99.90
52415;DHT22;38340;52.964;6.086;2024-03-08T15:41:15;8.20;99.90
52415;DHT22;38340;52.964;6.086;2024-03-08T15:43:41;8.10;99.90
52415;DHT22;38340;52.964;6.086;2024-03-08T15:46:09;8.10;99.90
52415;DHT22;38340;52.964;6.086;2024-03-08T15:48:36;8.10;99.90
52415;DHT22;38340;52.964;6.086;2024-03-08T15:51:03;8.10;99.90
52415;DHT22;38340;52.964;6.086;2024-03-08T15:53:35;8.00;99.90
52415;DHT22;38340;52.964;6.086;2024-03-08T15:56:01;8.00;99.90
52415;DHT22;38340;52.964;6.086;2024-03-08T15:58:28;7.90;99.90
52415;DHT22;38340;52.964;6.086;2024-03-08T16:00:56;7.90;99.90